Eships Dana — ZDJT6 — position and weather

sailwx.info

Track history (hours):
 
Tides and Currents Weather Stations Pressure Air Temp Water Temp Dewpoint Dewpoint Depression Visibility Wind Speed Wind Dir Waves Ship Positions

Eships Dana

Last reported at 2017-Jun-26 23:28 UTC. Time now 2017-Jun-28 01:55 UTC.
Position N 55°50' E 017°04'.

Length 116 m; draft 5.7 m.

Type: Ship (hazmat cat A). MMSI: 236566000.

Date/timePositionNaut miles runAvg speedWind from/ knotsBaromVisibWave heightAir tempDewpointWater temp
2017-Jun-26 23:28N 55°50' E 017°04'714.5
2017-Jun-26 23:00N 55°48' E 016°52'714.6
2017-Jun-26 22:30N 55°47' E 016°39'714.6
2017-Jun-26 22:00N 55°45' E 016°27'714.6
2017-Jun-26 21:30N 55°44' E 016°14'714.6
2017-Jun-26 21:00N 55°42' E 016°01'714.7
2017-Jun-26 20:30N 55°39' E 015°49'714.6
2017-Jun-26 20:00N 55°38' E 015°37'714.7
2017-Jun-26 19:30N 55°36' E 015°24'714.9
2017-Jun-26 19:00N 55°32' E 015°12'714.8
2017-Jun-26 18:31N 55°29' E 015°00'714.7
2017-Jun-26 18:00N 55°26' E 014°48'713.9
2017-Jun-26 17:30N 55°23' E 014°38'714.1
2017-Jun-26 17:00N 55°17' E 014°31'714.2
2017-Jun-26 16:30N 55°11' E 014°23'714.2
2017-Jun-26 16:00N 55°06' E 014°16'714.2
2017-Jun-26 15:30N 55°01' E 014°07'714.6
2017-Jun-26 15:00N 54°59' E 013°55'714.7
2017-Jun-26 14:31N 54°56' E 013°43'1514.6
2017-Jun-26 13:30N 54°52' E 013°18'714.5
2017-Jun-26 13:00N 54°49' E 013°07'714.5
2017-Jun-26 12:30N 54°47' E 012°55'714.8
2017-Jun-26 12:00N 54°44' E 012°43'1714.8
2017-Jun-26 10:50N 54°34' E 012°18'514.4
2017-Jun-26 10:28N 54°29' E 012°15'713.4
2017-Jun-26 09:57N 54°25' E 012°06'1614.7
2017-Jun-26 08:50N 54°27' E 011°39'515.6
2017-Jun-26 08:30N 54°29' E 011°30'815.8
2017-Jun-26 08:00N 54°33' E 011°18'815.3
2017-Jun-26 07:30N 54°35' E 011°06'915.4
2017-Jun-26 06:56N 54°34' E 010°51'615.1
2017-Jun-26 06:30N 54°33' E 010°40'714.6
2017-Jun-26 06:00N 54°31' E 010°27'34 6.9
2017-Jun-26 01:00N 54°14' E 009°36'4 7.3
2017-Jun-26 00:30N 54°12' E 009°32'7 6.4
2017-Jun-25 23:25N 54°09' E 009°21'3 6.7
2017-Jun-25 23:00N 54°06' E 009°20'4 8.3
2017-Jun-25 22:30N 54°02' E 009°18'4 8.0
2017-Jun-25 22:00N 53°58' E 009°16'4 8.3
2017-Jun-25 21:30N 53°55' E 009°11'2 4.0
2017-Jun-25 21:01N 53°54' E 009°09'0 0.6
2017-Jun-25 20:30N 53°53' E 009°08'2 4.0
2017-Jun-25 20:00N 53°53' E 009°12'713.7
2017-Jun-25 19:31N 53°50' E 009°22'714.9
2017-Jun-25 19:00N 53°43' E 009°28'4 8.8
2017-Jun-25 18:30N 53°39' E 009°31'0 0.0
2017-Jun-25 18:00N 53°39' E 009°31'0 0.0
2017-Jun-25 17:25N 53°39' E 009°31'0 0.0
2017-Jun-25 16:55N 53°39' E 009°31'0 0.0
2017-Jun-25 16:25N 53°39' E 009°31'0 0.0
2017-Jun-25 15:55N 53°39' E 009°31'0 0.0
2017-Jun-25 15:25N 53°39' E 009°31'0 0.0
2017-Jun-25 14:55N 53°39' E 009°31'0 0.0
2017-Jun-25 13:55N 53°39' E 009°31'0 0.0
2017-Jun-25 13:25N 53°39' E 009°31'0 0.0
2017-Jun-25 12:55N 53°39' E 009°31'0 0.0
2017-Jun-25 12:13N 53°39' E 009°31'0 0.0
2017-Jun-25 11:55N 53°39' E 009°31'0 0.0
2017-Jun-25 11:25N 53°39' E 009°31'0 0.0
2017-Jun-25 10:55N 53°39' E 009°31'0 0.0
2017-Jun-25 10:25N 53°39' E 009°31'0 0.0
2017-Jun-25 09:55N 53°39' E 009°31'0 0.0
2017-Jun-25 09:25N 53°39' E 009°31'0 0.0
2017-Jun-25 08:55N 53°39' E 009°31'0 0.0
2017-Jun-25 08:25N 53°39' E 009°31'0 0.0
2017-Jun-25 07:55N 53°39' E 009°31'0 0.0
2017-Jun-25 07:25N 53°39' E 009°31'0 0.0
2017-Jun-25 06:55N 53°39' E 009°31'0 0.0
2017-Jun-25 06:25N 53°39' E 009°31'0 0.0
2017-Jun-25 05:55N 53°39' E 009°31'0 0.0
2017-Jun-25 05:25N 53°39' E 009°31'0 0.0
2017-Jun-25 04:55N 53°39' E 009°31'0 0.0
2017-Jun-25 04:25N 53°39' E 009°31'0 0.0
2017-Jun-25 03:55N 53°39' E 009°31'0 0.0
2017-Jun-25 03:25N 53°39' E 009°31'0 0.0
2017-Jun-25 02:55N 53°39' E 009°31'0 0.0
2017-Jun-25 02:25N 53°39' E 009°31'0 0.0
2017-Jun-25 01:55N 53°39' E 009°31'0 0.0
2017-Jun-25 01:25N 53°39' E 009°31'0 0.0
2017-Jun-25 00:55N 53°39' E 009°31'0 0.0
2017-Jun-25 00:25N 53°39' E 009°31'0 0.0
2017-Jun-24 23:55N 53°39' E 009°31'0 0.0
2017-Jun-24 23:25N 53°39' E 009°31'0 0.0
2017-Jun-24 22:55N 53°39' E 009°31'0 0.0
2017-Jun-24 22:25N 53°39' E 009°31'0 0.0
2017-Jun-24 21:55N 53°39' E 009°31'0 0.0
2017-Jun-24 21:25N 53°39' E 009°31'0 0.0
2017-Jun-24 21:00N 53°39' E 009°31'1 1.5
2017-Jun-24 20:30N 53°40' E 009°31'4 8.3
2017-Jun-24 20:00N 53°44' E 009°27'510.5
2017-Jun-24 19:30N 53°48' E 009°23'510.4
2017-Jun-24 19:00N 53°52' E 009°17'5 9.9
2017-Jun-24 18:30N 53°53' E 009°09'4 7.7
2017-Jun-24 18:00N 53°52' E 009°02'5 9.7
2017-Jun-24 17:30N 53°51' E 008°54'5 9.8
2017-Jun-24 17:01N 53°51' E 008°46'4 8.6
2017-Jun-24 16:30N 53°54' E 008°41'5 9.0
2017-Jun-24 16:00N 53°57' E 008°37'510.7
2017-Jun-24 15:30N 53°59' E 008°28'611.1
2017-Jun-24 15:00N 53°60' E 008°18'8 8.0
2017-Jun-24 14:01N 53°60' E 008°05'3 5.3
2017-Jun-24 13:30N 54°02' E 008°03'3 5.7
2017-Jun-24 13:00N 54°03' E 008°08'1 1.8
2017-Jun-24 12:30N 54°03' E 008°09'0 0.0
2017-Jun-24 11:59N 54°03' E 008°09'0 0.0
2017-Jun-24 11:29N 54°03' E 008°09'0 0.0
2017-Jun-24 10:59N 54°03' E 008°09'0 0.0
2017-Jun-24 10:29N 54°03' E 008°09'0 0.0
2017-Jun-24 09:56N 54°03' E 008°09'0 0.0
2017-Jun-24 09:23N 54°03' E 008°09'0 0.0
2017-Jun-24 08:59N 54°03' E 008°09'0 0.0
2017-Jun-24 07:14N 54°03' E 008°09'0 0.0
2017-Jun-24 06:56N 54°03' E 008°09'0 0.0
2017-Jun-24 06:23N 54°03' E 008°09'0 0.0
2017-Jun-24 05:56N 54°03' E 008°09'0 0.0
2017-Jun-24 05:29N 54°03' E 008°09'0 0.0
2017-Jun-24 04:50N 54°03' E 008°09'0 0.1
2017-Jun-24 03:59N 54°03' E 008°09'0 0.0
2017-Jun-24 03:23N 54°03' E 008°09'0 0.0
2017-Jun-24 02:08N 54°03' E 008°09'0 0.2
2017-Jun-24 01:44N 54°03' E 008°09'0 0.1
2017-Jun-24 01:17N 54°03' E 008°09'0 0.1
2017-Jun-24 00:56N 54°03' E 008°09'0 0.0
2017-Jun-24 00:29N 54°03' E 008°09'0 0.0
2017-Jun-23 23:53N 54°03' E 008°09'0 0.0
2017-Jun-23 23:23N 54°03' E 008°09'0 0.0
2017-Jun-23 22:41N 54°03' E 008°09'0 0.6
2017-Jun-23 22:30N 54°03' E 008°09'3 4.3
2017-Jun-23 21:49N 54°06' E 008°09'1 3.2
2017-Jun-23 21:22N 54°05' E 008°07'3 8.7
2017-Jun-23 21:00N 54°02' E 008°04'612.2
2017-Jun-23 20:29N 53°59' E 007°56'1215.6
2017-Jun-23 19:42N 53°56' E 007°36'7415.0
2017-Jun-23 14:47N 53°36' E 005°36'714.0
2017-Jun-23 14:18N 53°34' E 005°25'413.6
2017-Jun-23 14:00N 53°33' E 005°19'1313.3
2017-Jun-23 13:03N 53°28' E 004°59'113.2
2017-Jun-23 12:59N 53°28' E 004°58'613.2
2017-Jun-23 12:30N 53°25' E 004°48'612.5
2017-Jun-23 12:00N 53°21' E 004°40'813.1
2017-Jun-23 11:24N 53°14' E 004°35'513.1
2017-Jun-23 10:59N 53°09' E 004°31'612.8
2017-Jun-23 10:30N 53°04' E 004°25'713.0
2017-Jun-23 09:59N 52°58' E 004°18'712.9
2017-Jun-23 09:28N 52°52' E 004°14'612.9
2017-Jun-23 09:00N 52°47' E 004°10'612.6
2017-Jun-23 08:30N 52°41' E 004°06'612.8
2017-Jun-23 08:00N 52°36' E 003°59'712.5
2017-Jun-23 07:29N 52°32' E 003°50'612.7
2017-Jun-23 06:59N 52°28' E 003°43'612.8
2017-Jun-23 06:30N 52°24' E 003°35'713.1
2017-Jun-23 05:59N 52°19' E 003°28'612.0
2017-Jun-23 05:29N 52°15' E 003°20'713.7
2017-Jun-23 04:59N 52°10' E 003°12'713.9
2017-Jun-23 04:30N 52°06' E 003°05'1314.2
2017-Jun-23 03:36N 51°56' E 002°50'314.6
2017-Jun-23 03:23N 51°54' E 002°46'614.8
2017-Jun-23 02:58N 51°49' E 002°40'915.0
2017-Jun-23 02:21N 51°42' E 002°31'515.3
2017-Jun-23 02:00N 51°38' E 002°25'815.4
2017-Jun-23 01:31N 51°32' E 002°17'815.7
2017-Jun-23 01:01N 51°26' E 002°09'713.8
2017-Jun-23 00:30N 51°20' E 002°09'714.9
2017-Jun-23 00:00N 51°13' E 002°03'816.5
2017-Jun-22 23:31N 51°09' E 001°52'816.5
2017-Jun-22 23:01N 51°03' E 001°43'815.4
2017-Jun-22 22:31N 50°57' E 001°34'714.3
2017-Jun-22 22:00N 50°53' E 001°26'816.0
2017-Jun-22 21:31N 50°45' E 001°22'3814.9
2017-Jun-22 18:57N 50°23' E 000°33'916.2
2017-Jun-22 18:25N 50°21' E 000°20'716.3
2017-Jun-22 18:00N 50°20' E 000°10'815.9
2017-Jun-22 17:31N 50°18' W 000°02'815.6
2017-Jun-22 17:00N 50°15' W 000°14'815.3
2017-Jun-22 16:30N 50°13' W 000°25'714.9
2017-Jun-22 16:00N 50°11' W 000°37'1314.1
2017-Jun-22 15:05N 50°08' W 000°56'113.4
2017-Jun-22 15:00N 50°08' W 000°58'812.9
2017-Jun-22 14:24N 50°06' W 001°10'1211.8
2017-Jun-22 13:25N 50°05' W 001°28'511.2
2017-Jun-22 13:00N 50°04' W 001°35'610.6
2017-Jun-22 12:26N 50°02' W 001°43'510.2
2017-Jun-22 11:59N 50°00' W 001°50'510.4
2017-Jun-22 11:31N 49°59' W 001°58'510.6
2017-Jun-22 10:59N 49°57' W 002°06'611.3
2017-Jun-22 10:29N 49°56' W 002°14'712.2
2017-Jun-22 09:57N 49°54' W 002°24'613.0
2017-Jun-22 09:30N 49°53' W 002°33'713.6
2017-Jun-22 08:57N 49°51' W 002°44'613.8
2017-Jun-22 08:30N 49°49' W 002°53'1014.2
2017-Jun-22 07:49N 49°44' W 003°06'514.5
2017-Jun-22 07:30N 49°41' W 003°11'714.5
2017-Jun-22 07:00N 49°37' W 003°20'814.4
2017-Jun-22 06:27N 49°33' W 003°31'1014.5
2017-Jun-22 05:47N 49°28' W 003°44'414.7
2017-Jun-22 05:29N 49°26' W 003°50'714.8
2017-Jun-22 04:59N 49°22' W 004°00'815.0
2017-Jun-22 04:27N 49°18' W 004°11'715.2
2017-Jun-22 04:00N 49°15' W 004°20'815.3
2017-Jun-22 03:30N 49°12' W 004°30'815.4
2017-Jun-22 02:59N 49°09' W 004°42'715.5
2017-Jun-22 02:30N 49°05' W 004°52'714.8
2017-Jun-22 02:00N 49°01' W 005°02'713.9
2017-Jun-22 01:28N 48°57' W 005°10'613.9
2017-Jun-22 01:00N 48°54' W 005°19'713.9
2017-Jun-22 00:30N 48°50' W 005°28'714.9
2017-Jun-22 00:00N 48°46' W 005°37'714.9
2017-Jun-21 23:30N 48°39' W 005°42'714.7
2017-Jun-21 23:01N 48°33' W 005°47'1214.4
2017-Jun-21 22:12N 48°23' W 005°57'19114.1
2017-Jun-21 08:40N 45°35' W 008°10'514.4
2017-Jun-21 08:18N 45°30' W 008°13'414.2
2017-Jun-21 08:00N 45°27' W 008°16'1414.3
2017-Jun-21 07:00N 45°14' W 008°26'713.9
2017-Jun-21 06:30N 45°08' W 008°31'714.2
2017-Jun-21 06:00N 45°02' W 008°36'714.3
2017-Jun-21 05:30N 44°56' W 008°41'713.9
2017-Jun-21 05:00N 44°50' W 008°45'713.6
2017-Jun-21 04:29N 44°43' W 008°50'1013.7
2017-Jun-21 03:44N 44°35' W 008°57'22613.6
2017-Jun-20 11:08N 40°53' W 009°57'214.1
2017-Jun-20 11:00N 40°51' W 009°57'714.0
2017-Jun-20 10:30N 40°44' W 009°58'714.3
2017-Jun-20 09:59N 40°37' W 009°58'2814.1
2017-Jun-20 07:58N 40°09' W 009°59'714.3
2017-Jun-20 07:29N 40°01' W 009°60'714.1
2017-Jun-20 07:00N 39°55' W 009°58'714.1
2017-Jun-20 06:30N 39°48' W 009°58'714.1
2017-Jun-20 06:00N 39°41' W 009°58'714.2
2017-Jun-20 05:31N 39°34' W 009°58'714.0
2017-Jun-20 05:00N 39°27' W 009°58'714.2
2017-Jun-20 04:30N 39°20' W 009°57'714.3
2017-Jun-20 04:00N 39°13' W 009°58'713.9
2017-Jun-20 03:30N 39°06' W 009°57'714.3
2017-Jun-20 03:00N 38°58' W 009°58'714.2
2017-Jun-20 02:30N 38°51' W 009°58'714.0
2017-Jun-20 02:01N 38°44' W 009°58'714.2
2017-Jun-20 01:31N 38°38' W 009°56'713.9
2017-Jun-20 01:00N 38°31' W 009°53'713.7
2017-Jun-20 00:30N 38°24' W 009°51'713.6
2017-Jun-20 00:01N 38°18' W 009°48'713.4
2017-Jun-19 23:31N 38°11' W 009°46'713.1
2017-Jun-19 23:00N 38°05' W 009°44'713.1
2017-Jun-19 22:30N 37°59' W 009°41'613.0
2017-Jun-19 22:00N 37°52' W 009°41'713.3
2017-Jun-19 21:30N 37°46' W 009°40'713.7
2017-Jun-19 21:00N 37°39' W 009°38'714.0
2017-Jun-19 20:31N 37°32' W 009°36'714.0
2017-Jun-19 20:01N 37°25' W 009°34'714.2
2017-Jun-19 19:30N 37°18' W 009°32'714.3
2017-Jun-19 19:00N 37°11' W 009°30'714.3
2017-Jun-19 18:30N 37°04' W 009°28'714.3
2017-Jun-19 18:00N 36°57' W 009°26'714.6
2017-Jun-19 17:30N 36°50' W 009°24'714.2
2017-Jun-19 16:59N 36°45' W 009°17'714.0
2017-Jun-19 16:30N 36°40' W 009°11'714.0
2017-Jun-19 16:00N 36°39' W 009°03'713.9
2017-Jun-19 15:30N 36°37' W 008°54'1014.1
2017-Jun-19 14:47N 36°36' W 008°42'613.8
2017-Jun-19 14:20N 36°35' W 008°34'1213.7
2017-Jun-19 13:25N 36°33' W 008°19'613.5
2017-Jun-19 13:00N 36°32' W 008°12'713.8
2017-Jun-19 12:30N 36°31' W 008°03'714.2
2017-Jun-19 12:00N 36°31' W 007°55'814.2
2017-Jun-19 11:29N 36°30' W 007°45'714.1
2017-Jun-19 11:00N 36°28' W 007°38'814.5
2017-Jun-19 10:28N 36°24' W 007°29'714.8
2017-Jun-19 10:00N 36°21' W 007°22'714.4
2017-Jun-19 09:30N 36°18' W 007°14'714.2
2017-Jun-19 09:00N 36°15' W 007°06'30213.2
2017-Jun-18 10:11N 37°12' W 000°56'313.7
2017-Jun-18 09:56N 37°14' W 000°53'614.0
2017-Jun-18 09:30N 37°18' W 000°46'713.9
2017-Jun-18 08:59N 37°23' W 000°40'814.2
2017-Jun-18 08:25N 37°27' W 000°31'614.3
2017-Jun-18 08:00N 37°31' W 000°26'714.4
2017-Jun-18 07:30N 37°36' W 000°18'714.4
2017-Jun-18 07:00N 37°40' W 000°12'714.5
2017-Jun-18 06:30N 37°47' W 000°07'714.4
2017-Jun-18 06:00N 37°52' W 000°02'714.3
2017-Jun-18 05:29N 37°58' E 000°04'714.2
2017-Jun-18 04:59N 38°04' E 000°09'714.5
2017-Jun-18 04:29N 38°10' E 000°14'714.7
2017-Jun-18 04:00N 38°16' E 000°19'1114.5
2017-Jun-18 03:14N 38°26' E 000°27'514.3
2017-Jun-18 02:51N 38°30' E 000°31'714.2
2017-Jun-18 02:23N 38°36' E 000°36'513.9
2017-Jun-18 02:00N 38°40' E 000°39'1713.8
2017-Jun-18 00:48N 38°56' E 000°44'1113.8
2017-Jun-18 00:01N 39°07' E 000°46'214.2
2017-Jun-17 23:54N 39°09' E 000°46'913.9
2017-Jun-17 23:17N 39°17' E 000°48'2514.0
2017-Jun-17 21:30N 39°42' E 000°54'714.1
2017-Jun-17 21:00N 39°48' E 000°56'714.1
2017-Jun-17 20:30N 39°55' E 000°57'714.0
2017-Jun-17 20:00N 40°02' E 000°57'713.9
2017-Jun-17 19:30N 40°09' E 000°57'714.1
2017-Jun-17 19:00N 40°16' E 000°58'714.1
2017-Jun-17 18:30N 40°23' E 000°59'714.0
2017-Jun-17 18:00N 40°30' E 001°00'713.8
2017-Jun-17 17:30N 40°37' E 001°01'612.8
2017-Jun-17 17:00N 40°43' E 001°05'713.4
2017-Jun-17 16:30N 40°49' E 001°08'713.9
2017-Jun-17 16:00N 40°56' E 001°10'612.3
2017-Jun-17 15:30N 41°02' E 001°12'3 1.0
2017-Jun-17 12:00N 41°05' E 001°12'0 0.0
2017-Jun-17 08:36N 41°05' E 001°12'0 0.0
2017-Jun-17 08:18N 41°05' E 001°12'0 0.0
2017-Jun-17 08:00N 41°05' E 001°12'0 0.0
2017-Jun-17 05:06N 41°05' E 001°12'  
Track history (hours):
 
Tides and Currents Weather Stations Pressure Air Temp Water Temp Dewpoint Dewpoint Depression Visibility Wind Speed Wind Dir Waves Ship Positions

Eships Dana

Last reported at 2017-Jun-26 23:28 UTC. Time now 2017-Jun-28 01:55 UTC.
Position N 55°50' E 017°04'.

Length 116 m; draft 5.7 m.

Type: Ship (hazmat cat A). MMSI: 236566000.

Date/timePositionNaut miles runAvg speedWind from/ knotsBaromVisibWave heightAir tempDewpointWater temp
2017-Jun-26 23:28N 55°50' E 017°04'714.5
2017-Jun-26 23:00N 55°48' E 016°52'714.6
2017-Jun-26 22:30N 55°47' E 016°39'714.6
2017-Jun-26 22:00N 55°45' E 016°27'714.6
2017-Jun-26 21:30N 55°44' E 016°14'714.6
2017-Jun-26 21:00N 55°42' E 016°01'714.7
2017-Jun-26 20:30N 55°39' E 015°49'714.6
2017-Jun-26 20:00N 55°38' E 015°37'714.7
2017-Jun-26 19:30N 55°36' E 015°24'714.9
2017-Jun-26 19:00N 55°32' E 015°12'714.8
2017-Jun-26 18:31N 55°29' E 015°00'714.7
2017-Jun-26 18:00N 55°26' E 014°48'713.9
2017-Jun-26 17:30N 55°23' E 014°38'714.1
2017-Jun-26 17:00N 55°17' E 014°31'714.2
2017-Jun-26 16:30N 55°11' E 014°23'714.2
2017-Jun-26 16:00N 55°06' E 014°16'714.2
2017-Jun-26 15:30N 55°01' E 014°07'714.6
2017-Jun-26 15:00N 54°59' E 013°55'714.7
2017-Jun-26 14:31N 54°56' E 013°43'1514.6
2017-Jun-26 13:30N 54°52' E 013°18'714.5
2017-Jun-26 13:00N 54°49' E 013°07'714.5
2017-Jun-26 12:30N 54°47' E 012°55'714.8
2017-Jun-26 12:00N 54°44' E 012°43'1714.8
2017-Jun-26 10:50N 54°34' E 012°18'514.4
2017-Jun-26 10:28N 54°29' E 012°15'713.4
2017-Jun-26 09:57N 54°25' E 012°06'1614.7
2017-Jun-26 08:50N 54°27' E 011°39'515.6
2017-Jun-26 08:30N 54°29' E 011°30'815.8
2017-Jun-26 08:00N 54°33' E 011°18'815.3
2017-Jun-26 07:30N 54°35' E 011°06'915.4
2017-Jun-26 06:56N 54°34' E 010°51'615.1
2017-Jun-26 06:30N 54°33' E 010°40'714.6
2017-Jun-26 06:00N 54°31' E 010°27'34 6.9
2017-Jun-26 01:00N 54°14' E 009°36'4 7.3
2017-Jun-26 00:30N 54°12' E 009°32'7 6.4
2017-Jun-25 23:25N 54°09' E 009°21'3 6.7
2017-Jun-25 23:00N 54°06' E 009°20'4 8.3
2017-Jun-25 22:30N 54°02' E 009°18'4 8.0
2017-Jun-25 22:00N 53°58' E 009°16'4 8.3
2017-Jun-25 21:30N 53°55' E 009°11'2 4.0
2017-Jun-25 21:01N 53°54' E 009°09'0 0.6
2017-Jun-25 20:30N 53°53' E 009°08'2 4.0
2017-Jun-25 20:00N 53°53' E 009°12'713.7
2017-Jun-25 19:31N 53°50' E 009°22'714.9
2017-Jun-25 19:00N 53°43' E 009°28'4 8.8
2017-Jun-25 18:30N 53°39' E 009°31'0 0.0
2017-Jun-25 18:00N 53°39' E 009°31'0 0.0
2017-Jun-25 17:25N 53°39' E 009°31'0 0.0
2017-Jun-25 16:55N 53°39' E 009°31'0 0.0
2017-Jun-25 16:25N 53°39' E 009°31'0 0.0
2017-Jun-25 15:55N 53°39' E 009°31'0 0.0
2017-Jun-25 15:25N 53°39' E 009°31'0 0.0
2017-Jun-25 14:55N 53°39' E 009°31'0 0.0
2017-Jun-25 13:55N 53°39' E 009°31'0 0.0
2017-Jun-25 13:25N 53°39' E 009°31'0 0.0
2017-Jun-25 12:55N 53°39' E 009°31'0 0.0
2017-Jun-25 12:13N 53°39' E 009°31'0 0.0
2017-Jun-25 11:55N 53°39' E 009°31'0 0.0
2017-Jun-25 11:25N 53°39' E 009°31'0 0.0
2017-Jun-25 10:55N 53°39' E 009°31'0 0.0
2017-Jun-25 10:25N 53°39' E 009°31'0 0.0
2017-Jun-25 09:55N 53°39' E 009°31'0 0.0
2017-Jun-25 09:25N 53°39' E 009°31'0 0.0
2017-Jun-25 08:55N 53°39' E 009°31'0 0.0
2017-Jun-25 08:25N 53°39' E 009°31'0 0.0
2017-Jun-25 07:55N 53°39' E 009°31'0 0.0
2017-Jun-25 07:25N 53°39' E 009°31'0 0.0
2017-Jun-25 06:55N 53°39' E 009°31'0 0.0
2017-Jun-25 06:25N 53°39' E 009°31'0 0.0
2017-Jun-25 05:55N 53°39' E 009°31'0 0.0
2017-Jun-25 05:25N 53°39' E 009°31'0 0.0
2017-Jun-25 04:55N 53°39' E 009°31'0 0.0
2017-Jun-25 04:25N 53°39' E 009°31'0 0.0
2017-Jun-25 03:55N 53°39' E 009°31'0 0.0
2017-Jun-25 03:25N 53°39' E 009°31'0 0.0
2017-Jun-25 02:55N 53°39' E 009°31'0 0.0
2017-Jun-25 02:25N 53°39' E 009°31'0 0.0
2017-Jun-25 01:55N 53°39' E 009°31'0 0.0
2017-Jun-25 01:25N 53°39' E 009°31'0 0.0
2017-Jun-25 00:55N 53°39' E 009°31'0 0.0
2017-Jun-25 00:25N 53°39' E 009°31'0 0.0
2017-Jun-24 23:55N 53°39' E 009°31'0 0.0
2017-Jun-24 23:25N 53°39' E 009°31'0 0.0
2017-Jun-24 22:55N 53°39' E 009°31'0 0.0
2017-Jun-24 22:25N 53°39' E 009°31'0 0.0
2017-Jun-24 21:55N 53°39' E 009°31'0 0.0
2017-Jun-24 21:25N 53°39' E 009°31'0 0.0
2017-Jun-24 21:00N 53°39' E 009°31'1 1.5
2017-Jun-24 20:30N 53°40' E 009°31'4 8.3
2017-Jun-24 20:00N 53°44' E 009°27'510.5
2017-Jun-24 19:30N 53°48' E 009°23'510.4
2017-Jun-24 19:00N 53°52' E 009°17'5 9.9
2017-Jun-24 18:30N 53°53' E 009°09'4 7.7
2017-Jun-24 18:00N 53°52' E 009°02'5 9.7
2017-Jun-24 17:30N 53°51' E 008°54'5 9.8
2017-Jun-24 17:01N 53°51' E 008°46'4 8.6
2017-Jun-24 16:30N 53°54' E 008°41'5 9.0
2017-Jun-24 16:00N 53°57' E 008°37'510.7
2017-Jun-24 15:30N 53°59' E 008°28'611.1
2017-Jun-24 15:00N 53°60' E 008°18'8 8.0
2017-Jun-24 14:01N 53°60' E 008°05'3 5.3
2017-Jun-24 13:30N 54°02' E 008°03'3 5.7
2017-Jun-24 13:00N 54°03' E 008°08'1 1.8
2017-Jun-24 12:30N 54°03' E 008°09'0 0.0
2017-Jun-24 11:59N 54°03' E 008°09'0 0.0
2017-Jun-24 11:29N 54°03' E 008°09'0 0.0
2017-Jun-24 10:59N 54°03' E 008°09'0 0.0
2017-Jun-24 10:29N 54°03' E 008°09'0 0.0
2017-Jun-24 09:56N 54°03' E 008°09'0 0.0
2017-Jun-24 09:23N 54°03' E 008°09'0 0.0
2017-Jun-24 08:59N 54°03' E 008°09'0 0.0
2017-Jun-24 07:14N 54°03' E 008°09'0 0.0
2017-Jun-24 06:56N 54°03' E 008°09'0 0.0
2017-Jun-24 06:23N 54°03' E 008°09'0 0.0
2017-Jun-24 05:56N 54°03' E 008°09'0 0.0
2017-Jun-24 05:29N 54°03' E 008°09'0 0.0
2017-Jun-24 04:50N 54°03' E 008°09'0 0.1
2017-Jun-24 03:59N 54°03' E 008°09'0 0.0
2017-Jun-24 03:23N 54°03' E 008°09'0 0.0
2017-Jun-24 02:08N 54°03' E 008°09'0 0.2
2017-Jun-24 01:44N 54°03' E 008°09'0 0.1
2017-Jun-24 01:17N 54°03' E 008°09'0 0.1
2017-Jun-24 00:56N 54°03' E 008°09'0 0.0
2017-Jun-24 00:29N 54°03' E 008°09'0 0.0
2017-Jun-23 23:53N 54°03' E 008°09'0 0.0
2017-Jun-23 23:23N 54°03' E 008°09'0 0.0
2017-Jun-23 22:41N 54°03' E 008°09'0 0.6
2017-Jun-23 22:30N 54°03' E 008°09'3 4.3
2017-Jun-23 21:49N 54°06' E 008°09'1 3.2
2017-Jun-23 21:22N 54°05' E 008°07'3 8.7
2017-Jun-23 21:00N 54°02' E 008°04'612.2
2017-Jun-23 20:29N 53°59' E 007°56'1215.6
2017-Jun-23 19:42N 53°56' E 007°36'7415.0
2017-Jun-23 14:47N 53°36' E 005°36'714.0
2017-Jun-23 14:18N 53°34' E 005°25'413.6
2017-Jun-23 14:00N 53°33' E 005°19'1313.3
2017-Jun-23 13:03N 53°28' E 004°59'113.2
2017-Jun-23 12:59N 53°28' E 004°58'613.2
2017-Jun-23 12:30N 53°25' E 004°48'612.5
2017-Jun-23 12:00N 53°21' E 004°40'813.1
2017-Jun-23 11:24N 53°14' E 004°35'513.1
2017-Jun-23 10:59N 53°09' E 004°31'612.8
2017-Jun-23 10:30N 53°04' E 004°25'713.0
2017-Jun-23 09:59N 52°58' E 004°18'712.9
2017-Jun-23 09:28N 52°52' E 004°14'612.9
2017-Jun-23 09:00N 52°47' E 004°10'612.6
2017-Jun-23 08:30N 52°41' E 004°06'612.8
2017-Jun-23 08:00N 52°36' E 003°59'712.5
2017-Jun-23 07:29N 52°32' E 003°50'612.7
2017-Jun-23 06:59N 52°28' E 003°43'612.8
2017-Jun-23 06:30N 52°24' E 003°35'713.1
2017-Jun-23 05:59N 52°19' E 003°28'612.0
2017-Jun-23 05:29N 52°15' E 003°20'713.7
2017-Jun-23 04:59N 52°10' E 003°12'713.9
2017-Jun-23 04:30N 52°06' E 003°05'1314.2
2017-Jun-23 03:36N 51°56' E 002°50'314.6
2017-Jun-23 03:23N 51°54' E 002°46'614.8
2017-Jun-23 02:58N 51°49' E 002°40'915.0
2017-Jun-23 02:21N 51°42' E 002°31'515.3
2017-Jun-23 02:00N 51°38' E 002°25'815.4
2017-Jun-23 01:31N 51°32' E 002°17'815.7
2017-Jun-23 01:01N 51°26' E 002°09'713.8
2017-Jun-23 00:30N 51°20' E 002°09'714.9
2017-Jun-23 00:00N 51°13' E 002°03'816.5
2017-Jun-22 23:31N 51°09' E 001°52'816.5
2017-Jun-22 23:01N 51°03' E 001°43'815.4
2017-Jun-22 22:31N 50°57' E 001°34'714.3
2017-Jun-22 22:00N 50°53' E 001°26'816.0
2017-Jun-22 21:31N 50°45' E 001°22'3814.9
2017-Jun-22 18:57N 50°23' E 000°33'916.2
2017-Jun-22 18:25N 50°21' E 000°20'716.3
2017-Jun-22 18:00N 50°20' E 000°10'815.9
2017-Jun-22 17:31N 50°18' W 000°02'815.6
2017-Jun-22 17:00N 50°15' W 000°14'815.3
2017-Jun-22 16:30N 50°13' W 000°25'714.9
2017-Jun-22 16:00N 50°11' W 000°37'1314.1
2017-Jun-22 15:05N 50°08' W 000°56'113.4
2017-Jun-22 15:00N 50°08' W 000°58'812.9
2017-Jun-22 14:24N 50°06' W 001°10'1211.8
2017-Jun-22 13:25N 50°05' W 001°28'511.2
2017-Jun-22 13:00N 50°04' W 001°35'610.6
2017-Jun-22 12:26N 50°02' W 001°43'510.2
2017-Jun-22 11:59N 50°00' W 001°50'510.4
2017-Jun-22 11:31N 49°59' W 001°58'510.6
2017-Jun-22 10:59N 49°57' W 002°06'611.3
2017-Jun-22 10:29N 49°56' W 002°14'712.2
2017-Jun-22 09:57N 49°54' W 002°24'613.0
2017-Jun-22 09:30N 49°53' W 002°33'713.6
2017-Jun-22 08:57N 49°51' W 002°44'613.8
2017-Jun-22 08:30N 49°49' W 002°53'1014.2
2017-Jun-22 07:49N 49°44' W 003°06'514.5
2017-Jun-22 07:30N 49°41' W 003°11'714.5
2017-Jun-22 07:00N 49°37' W 003°20'814.4
2017-Jun-22 06:27N 49°33' W 003°31'1014.5
2017-Jun-22 05:47N 49°28' W 003°44'414.7
2017-Jun-22 05:29N 49°26' W 003°50'714.8
2017-Jun-22 04:59N 49°22' W 004°00'815.0
2017-Jun-22 04:27N 49°18' W 004°11'715.2
2017-Jun-22 04:00N 49°15' W 004°20'815.3
2017-Jun-22 03:30N 49°12' W 004°30'815.4
2017-Jun-22 02:59N 49°09' W 004°42'715.5
2017-Jun-22 02:30N 49°05' W 004°52'714.8
2017-Jun-22 02:00N 49°01' W 005°02'713.9
2017-Jun-22 01:28N 48°57' W 005°10'613.9
2017-Jun-22 01:00N 48°54' W 005°19'713.9
2017-Jun-22 00:30N 48°50' W 005°28'714.9
2017-Jun-22 00:00N 48°46' W 005°37'714.9
2017-Jun-21 23:30N 48°39' W 005°42'714.7
2017-Jun-21 23:01N 48°33' W 005°47'1214.4
2017-Jun-21 22:12N 48°23' W 005°57'19114.1
2017-Jun-21 08:40N 45°35' W 008°10'514.4
2017-Jun-21 08:18N 45°30' W 008°13'414.2
2017-Jun-21 08:00N 45°27' W 008°16'1414.3
2017-Jun-21 07:00N 45°14' W 008°26'713.9
2017-Jun-21 06:30N 45°08' W 008°31'714.2
2017-Jun-21 06:00N 45°02' W 008°36'714.3
2017-Jun-21 05:30N 44°56' W 008°41'713.9
2017-Jun-21 05:00N 44°50' W 008°45'713.6
2017-Jun-21 04:29N 44°43' W 008°50'1013.7
2017-Jun-21 03:44N 44°35' W 008°57'22613.6
2017-Jun-20 11:08N 40°53' W 009°57'214.1
2017-Jun-20 11:00N 40°51' W 009°57'714.0
2017-Jun-20 10:30N 40°44' W 009°58'714.3
2017-Jun-20 09:59N 40°37' W 009°58'2814.1
2017-Jun-20 07:58N 40°09' W 009°59'714.3
2017-Jun-20 07:29N 40°01' W 009°60'714.1
2017-Jun-20 07:00N 39°55' W 009°58'714.1
2017-Jun-20 06:30N 39°48' W 009°58'714.1
2017-Jun-20 06:00N 39°41' W 009°58'714.2
2017-Jun-20 05:31N 39°34' W 009°58'714.0
2017-Jun-20 05:00N 39°27' W 009°58'714.2
2017-Jun-20 04:30N 39°20' W 009°57'714.3
2017-Jun-20 04:00N 39°13' W 009°58'713.9
2017-Jun-20 03:30N 39°06' W 009°57'714.3
2017-Jun-20 03:00N 38°58' W 009°58'714.2
2017-Jun-20 02:30N 38°51' W 009°58'714.0
2017-Jun-20 02:01N 38°44' W 009°58'714.2
2017-Jun-20 01:31N 38°38' W 009°56'713.9
2017-Jun-20 01:00N 38°31' W 009°53'713.7
2017-Jun-20 00:30N 38°24' W 009°51'713.6
2017-Jun-20 00:01N 38°18' W 009°48'713.4
2017-Jun-19 23:31N 38°11' W 009°46'713.1
2017-Jun-19 23:00N 38°05' W 009°44'713.1
2017-Jun-19 22:30N 37°59' W 009°41'613.0
2017-Jun-19 22:00N 37°52' W 009°41'713.3
2017-Jun-19 21:30N 37°46' W 009°40'713.7
2017-Jun-19 21:00N 37°39' W 009°38'714.0
2017-Jun-19 20:31N 37°32' W 009°36'714.0
2017-Jun-19 20:01N 37°25' W 009°34'714.2
2017-Jun-19 19:30N 37°18' W 009°32'714.3
2017-Jun-19 19:00N 37°11' W 009°30'714.3
2017-Jun-19 18:30N 37°04' W 009°28'714.3
2017-Jun-19 18:00N 36°57' W 009°26'714.6
2017-Jun-19 17:30N 36°50' W 009°24'714.2
2017-Jun-19 16:59N 36°45' W 009°17'714.0
2017-Jun-19 16:30N 36°40' W 009°11'714.0
2017-Jun-19 16:00N 36°39' W 009°03'713.9
2017-Jun-19 15:30N 36°37' W 008°54'1014.1
2017-Jun-19 14:47N 36°36' W 008°42'613.8
2017-Jun-19 14:20N 36°35' W 008°34'1213.7
2017-Jun-19 13:25N 36°33' W 008°19'613.5
2017-Jun-19 13:00N 36°32' W 008°12'713.8
2017-Jun-19 12:30N 36°31' W 008°03'714.2
2017-Jun-19 12:00N 36°31' W 007°55'814.2
2017-Jun-19 11:29N 36°30' W 007°45'714.1
2017-Jun-19 11:00N 36°28' W 007°38'814.5
2017-Jun-19 10:28N 36°24' W 007°29'714.8
2017-Jun-19 10:00N 36°21' W 007°22'714.4
2017-Jun-19 09:30N 36°18' W 007°14'714.2
2017-Jun-19 09:00N 36°15' W 007°06'30213.2
2017-Jun-18 10:11N 37°12' W 000°56'313.7
2017-Jun-18 09:56N 37°14' W 000°53'614.0
2017-Jun-18 09:30N 37°18' W 000°46'713.9
2017-Jun-18 08:59N 37°23' W 000°40'814.2
2017-Jun-18 08:25N 37°27' W 000°31'614.3
2017-Jun-18 08:00N 37°31' W 000°26'714.4
2017-Jun-18 07:30N 37°36' W 000°18'714.4
2017-Jun-18 07:00N 37°40' W 000°12'714.5
2017-Jun-18 06:30N 37°47' W 000°07'714.4
2017-Jun-18 06:00N 37°52' W 000°02'714.3
2017-Jun-18 05:29N 37°58' E 000°04'714.2
2017-Jun-18 04:59N 38°04' E 000°09'714.5
2017-Jun-18 04:29N 38°10' E 000°14'714.7
2017-Jun-18 04:00N 38°16' E 000°19'1114.5
2017-Jun-18 03:14N 38°26' E 000°27'514.3
2017-Jun-18 02:51N 38°30' E 000°31'714.2
2017-Jun-18 02:23N 38°36' E 000°36'513.9
2017-Jun-18 02:00N 38°40' E 000°39'1713.8
2017-Jun-18 00:48N 38°56' E 000°44'1113.8
2017-Jun-18 00:01N 39°07' E 000°46'214.2
2017-Jun-17 23:54N 39°09' E 000°46'913.9
2017-Jun-17 23:17N 39°17' E 000°48'2514.0
2017-Jun-17 21:30N 39°42' E 000°54'714.1
2017-Jun-17 21:00N 39°48' E 000°56'714.1
2017-Jun-17 20:30N 39°55' E 000°57'714.0
2017-Jun-17 20:00N 40°02' E 000°57'713.9
2017-Jun-17 19:30N 40°09' E 000°57'714.1
2017-Jun-17 19:00N 40°16' E 000°58'714.1
2017-Jun-17 18:30N 40°23' E 000°59'714.0
2017-Jun-17 18:00N 40°30' E 001°00'713.8
2017-Jun-17 17:30N 40°37' E 001°01'612.8
2017-Jun-17 17:00N 40°43' E 001°05'713.4
2017-Jun-17 16:30N 40°49' E 001°08'713.9
2017-Jun-17 16:00N 40°56' E 001°10'612.3
2017-Jun-17 15:30N 41°02' E 001°12'3 1.0
2017-Jun-17 12:00N 41°05' E 001°12'0 0.0
2017-Jun-17 08:36N 41°05' E 001°12'0 0.0
2017-Jun-17 08:18N 41°05' E 001°12'0 0.0
2017-Jun-17 08:00N 41°05' E 001°12'0 0.0
2017-Jun-17 05:06N 41°05' E 001°12'  

Dump ship's entire track history